Time;durP1;ratioP1;P1;durP2;ratioP2;P2;SDS_P1;SDS_P2;PMS_P1;PMS_P2;Temp;Humidity;BMP_temperature;BMP_pressure;BME280_temperature;BME280_humidity;BME280_pressure;Samples;Min_cycle;Max_cycle;Signal;HPM_P1;HPM_P2
2022/12/04 00:01:20;;;;;;;7.05;4.75;;;17.40;49.40;;;;;;5046774;28;20128;-55
2022/12/04 00:03:47;;;;;;;6.85;4.35;;;17.40;49.40;;;;;;5045665;28;20041;-57
2022/12/04 00:06:16;;;;;;;4.47;4.03;;;17.40;49.30;;;;;;5046403;28;20064;-58
2022/12/04 00:08:44;;;;;;;5.30;3.75;;;17.40;49.30;;;;;;5046833;28;20045;-58
2022/12/04 00:11:14;;;;;;;5.20;2.90;;;17.40;49.30;;;;;;5046996;28;20088;-56
2022/12/04 00:13:42;;;;;;;6.05;4.43;;;17.40;49.30;;;;;;5046634;28;20099;-57
2022/12/04 00:16:11;;;;;;;4.90;2.92;;;17.40;49.20;;;;;;5047072;28;20044;-57
2022/12/04 00:18:38;;;;;;;5.53;3.10;;;17.40;49.20;;;;;;5046769;28;20041;-57
2022/12/04 00:21:07;;;;;;;3.78;2.45;;;17.40;49.20;;;;;;5046788;28;20445;-58
2022/12/04 00:23:35;;;;;;;3.75;2.83;;;17.40;49.20;;;;;;5046788;28;20041;-58
2022/12/04 00:26:03;;;;;;;3.58;2.38;;;17.40;49.20;;;;;;5046624;28;20095;-58
2022/12/04 00:28:32;;;;;;;4.57;3.35;;;17.40;49.10;;;;;;5046261;28;20116;-56
2022/12/04 00:30:59;;;;;;;3.85;2.78;;;17.40;49.50;;;;;;5046946;28;20044;-56
2022/12/04 00:33:26;;;;;;;3.50;2.47;;;17.40;49.10;;;;;;5046535;28;20489;-57
2022/12/04 00:35:58;;;;;;;3.60;3.10;;;17.30;48.90;;;;;;5043427;28;20700;-56
2022/12/04 00:38:25;;;;;;;3.53;1.90;;;17.30;48.90;;;;;;5046777;28;20049;-57
2022/12/04 00:40:52;;;;;;;3.95;2.35;;;17.30;48.90;;;;;;5046650;28;20110;-56
2022/12/04 00:43:20;;;;;;;3.05;2.05;;;17.30;49.00;;;;;;5046330;28;20072;-57
2022/12/04 00:45:48;;;;;;;3.92;2.67;;;17.30;48.90;;;;;;5046632;28;20041;-56
2022/12/04 00:48:15;;;;;;;3.53;2.28;;;17.30;48.90;;;;;;5046666;28;20517;-57
2022/12/04 00:50:43;;;;;;;3.00;2.30;;;17.30;48.90;;;;;;5046448;28;20515;-56
2022/12/04 00:53:10;;;;;;;4.95;2.72;;;17.30;48.90;;;;;;5046589;28;20571;-56
2022/12/04 00:55:38;;;;;;;5.65;2.83;;;17.30;48.90;;;;;;5046465;28;20049;-57
2022/12/04 00:58:06;;;;;;;3.30;1.65;;;17.30;48.90;;;;;;5046122;28;20056;-57
2022/12/04 01:00:33;;;;;;;3.05;2.40;;;17.30;48.90;;;;;;5046337;28;20132;-57
2022/12/04 01:03:02;;;;;;;1.75;1.45;;;17.30;48.80;;;;;;5046614;28;20463;-56
2022/12/04 01:05:29;;;;;;;4.50;2.92;;;17.30;48.80;;;;;;5048110;28;20135;-57
2022/12/04 01:07:56;;;;;;;4.32;2.72;;;17.30;48.80;;;;;;5049980;28;20835;-56
2022/12/04 01:10:23;;;;;;;4.30;2.53;;;17.30;48.70;;;;;;5050108;28;20041;-57
2022/12/04 01:12:52;;;;;;;2.85;1.70;;;17.30;48.70;;;;;;5049702;28;20047;-56
2022/12/04 01:15:19;;;;;;;3.15;2.00;;;17.30;48.60;;;;;;5050028;28;20512;-55
2022/12/04 01:17:46;;;;;;;3.65;1.95;;;17.30;48.60;;;;;;5050047;28;20448;-56
2022/12/04 01:20:16;;;;;;;4.00;2.08;;;17.20;48.50;;;;;;5050037;28;20053;-56
2022/12/04 01:22:43;;;;;;;3.03;2.03;;;17.30;48.50;;;;;;5049888;28;20485;-56
2022/12/04 01:25:10;;;;;;;3.85;2.05;;;17.30;48.50;;;;;;5048462;28;20063;-57
2022/12/04 01:27:37;;;;;;;3.60;2.28;;;17.30;48.50;;;;;;5049713;28;20041;-57
2022/12/04 01:30:05;;;;;;;3.72;2.25;;;17.30;48.40;;;;;;5049650;28;20063;-56
2022/12/04 01:32:32;;;;;;;4.28;2.75;;;17.30;48.40;;;;;;5048391;28;20045;-57
2022/12/04 01:35:00;;;;;;;2.80;2.08;;;17.30;48.30;;;;;;5049989;28;20040;-56
2022/12/04 01:37:30;;;;;;;3.13;2.20;;;17.30;48.30;;;;;;5049520;28;20095;-57
2022/12/04 01:39:57;;;;;;;3.13;2.88;;;17.30;48.20;;;;;;5049276;28;20072;-56
2022/12/04 01:42:25;;;;;;;2.30;1.60;;;17.30;48.20;;;;;;5049235;28;20037;-56
2022/12/04 01:45:29;;;;;;;2.42;2.08;;;17.30;48.20;;;;;;5049465;28;20045;-56
2022/12/04 01:48:02;;;;;;;4.43;2.55;;;17.30;48.20;;;;;;5049575;28;20136;-56
2022/12/04 01:50:29;;;;;;;3.83;2.47;;;17.20;48.10;;;;;;5049381;28;20599;-56
2022/12/04 01:52:59;;;;;;;2.05;1.85;;;17.20;48.20;;;;;;5049482;28;20045;-56
2022/12/04 01:55:26;;;;;;;4.07;2.53;;;17.20;48.10;;;;;;5048901;28;20084;-58
2022/12/04 01:57:53;;;;;;;3.63;2.65;;;17.20;48.10;;;;;;5048589;28;20055;-56
2022/12/04 02:00:21;;;;;;;3.60;2.03;;;17.20;48.00;;;;;;5049422;28;20060;-59
2022/12/04 02:02:48;;;;;;;3.80;2.78;;;17.20;48.00;;;;;;5049334;28;20365;-57
2022/12/04 02:05:17;;;;;;;3.13;1.70;;;17.20;48.00;;;;;;5049213;28;20823;-57
2022/12/04 02:07:47;;;;;;;2.85;2.25;;;17.20;48.00;;;;;;5047838;28;20561;-56
2022/12/04 02:10:16;;;;;;;4.35;3.08;;;17.20;47.90;;;;;;5048813;28;20128;-56
2022/12/04 02:12:51;;;;;;;3.17;2.17;;;17.20;47.90;;;;;;5049127;28;20463;-56
2022/12/04 02:15:23;;;;;;;3.50;1.88;;;17.20;47.90;;;;;;5048827;28;20045;-58
2022/12/04 02:17:55;;;;;;;3.10;2.40;;;17.20;47.90;;;;;;5048215;28;20136;-57
2022/12/04 02:20:32;;;;;;;4.13;2.90;;;17.20;47.80;;;;;;5048894;28;20107;-58
2022/12/04 02:23:39;;;;;;;4.00;3.10;;;17.20;47.90;;;;;;5047537;28;20132;-57
2022/12/04 02:26:22;;;;;;;3.67;2.45;;;17.20;47.80;;;;;;5048700;28;20563;-57
2022/12/04 02:28:56;;;;;;;5.07;2.97;;;17.20;47.90;;;;;;5048598;28;20044;-58
2022/12/04 02:31:32;;;;;;;3.22;2.25;;;17.20;47.90;;;;;;5048686;28;20577;-57
2022/12/04 02:34:04;;;;;;;1.77;1.48;;;17.20;48.40;;;;;;5047065;28;20516;-58
2022/12/04 02:36:36;;;;;;;3.97;2.55;;;17.20;47.80;;;;;;5048694;28;20044;-57
2022/12/04 02:39:09;;;;;;;3.00;2.05;;;17.20;47.80;;;;;;5048222;28;20150;-57
2022/12/04 02:41:42;;;;;;;4.28;2.83;;;17.20;47.80;;;;;;5045134;28;20041;-56
2022/12/04 02:44:15;;;;;;;3.03;1.65;;;17.20;47.80;;;;;;5048185;28;20136;-58
2022/12/04 02:46:44;;;;;;;3.28;2.20;;;17.20;47.70;;;;;;5048242;28;20037;-56
2022/12/04 02:49:17;;;;;;;3.08;1.88;;;17.20;47.70;;;;;;5048458;28;20572;-57
2022/12/04 02:51:46;;;;;;;3.50;2.33;;;17.20;47.60;;;;;;5048257;28;20123;-56
2022/12/04 02:54:21;;;;;;;5.47;3.42;;;17.20;47.60;;;;;;5047931;28;20509;-56
2022/12/04 02:56:52;;;;;;;3.15;2.85;;;17.20;47.60;;;;;;5046984;28;20044;-57
2022/12/04 02:59:25;;;;;;;3.88;2.75;;;17.20;47.50;;;;;;5047942;28;20593;-56
2022/12/04 03:01:56;;;;;;;3.05;2.38;;;17.20;47.50;;;;;;5048172;28;20580;-57
2022/12/04 03:04:26;;;;;;;3.33;2.35;;;17.20;47.50;;;;;;5048315;28;20045;-56
2022/12/04 03:06:57;;;;;;;3.20;2.47;;;17.20;47.40;;;;;;5047918;28;20056;-54
2022/12/04 03:09:29;;;;;;;4.70;3.20;;;17.20;47.40;;;;;;5047773;28;20036;-57
2022/12/04 03:12:00;;;;;;;3.33;3.05;;;17.20;47.30;;;;;;5047916;28;20045;-57
2022/12/04 03:14:33;;;;;;;4.65;3.13;;;17.20;47.30;;;;;;5047990;28;20124;-56
2022/12/04 03:17:06;;;;;;;4.00;3.00;;;17.20;47.30;;;;;;5048089;28;20072;-57
2022/12/04 03:19:38;;;;;;;4.68;2.95;;;17.20;47.30;;;;;;5047687;28;20068;-58
2022/12/04 03:22:10;;;;;;;4.75;2.92;;;17.20;47.30;;;;;;5047262;28;20041;-58
2022/12/04 03:24:42;;;;;;;5.35;3.28;;;17.20;47.30;;;;;;5047449;28;20047;-56
2022/12/04 03:27:14;;;;;;;3.83;2.83;;;17.20;47.20;;;;;;5047702;28;20136;-56
2022/12/04 03:29:46;;;;;;;5.38;2.75;;;17.20;47.10;;;;;;5046538;28;20120;-55
2022/12/04 03:32:18;;;;;;;4.43;2.50;;;17.20;47.10;;;;;;5047338;28;20064;-56
2022/12/04 03:34:54;;;;;;;3.35;2.25;;;17.20;47.10;;;;;;5047211;28;20091;-56
2022/12/04 03:37:29;;;;;;;2.90;2.28;;;17.20;47.00;;;;;;5047095;28;20098;-56
2022/12/04 03:40:02;;;;;;;3.67;2.55;;;17.20;47.10;;;;;;5047390;28;20044;-57
2022/12/04 03:42:35;;;;;;;3.42;2.83;;;17.20;47.00;;;;;;5047375;28;20037;-57
2022/12/04 03:45:10;;;;;;;3.58;3.05;;;17.20;47.00;;;;;;5047291;28;20073;-57
2022/12/04 03:47:43;;;;;;;4.70;3.78;;;17.20;46.90;;;;;;5047560;28;20580;-56
2022/12/04 03:50:18;;;;;;;2.85;2.45;;;17.20;47.00;;;;;;5047294;28;20140;-55
2022/12/04 03:52:51;;;;;;;3.53;2.58;;;17.20;47.00;;;;;;5046915;28;20069;-57
2022/12/04 03:55:26;;;;;;;2.53;1.85;;;17.20;46.90;;;;;;5047168;28;20040;-56
2022/12/04 03:57:59;;;;;;;4.27;3.50;;;17.20;47.00;;;;;;5046898;28;20049;-57
2022/12/04 04:00:29;;;;;;;3.97;2.92;;;17.20;46.90;;;;;;5046998;28;20302;-55
2022/12/04 04:03:00;;;;;;;3.40;2.58;;;17.20;46.90;;;;;;5047128;28;20072;-56
2022/12/04 04:05:30;;;;;;;5.25;2.88;;;17.20;46.90;;;;;;5046909;28;20041;-56
2022/12/04 04:08:24;;;;;;;2.70;2.30;;;17.20;46.90;;;;;;5047101;28;20040;-56
2022/12/04 04:10:48;;;;;;;3.00;2.13;;;17.20;46.90;;;;;;5046928;28;20049;-56
2022/12/04 04:24:28;;;;;;;4.45;2.67;;;17.20;46.80;;;;;;4984624;28;20089;-56
2022/12/04 04:26:57;;;;;;;3.28;2.25;;;17.20;46.80;;;;;;4984919;28;20727;-57
2022/12/04 04:29:26;;;;;;;7.50;2.78;;;17.20;46.80;;;;;;4968581;28;20145;-56
2022/12/04 04:32:00;;;;;;;4.85;2.42;;;17.20;46.70;;;;;;4984516;28;20054;-59
2022/12/04 04:34:33;;;;;;;4.18;2.65;;;17.20;46.70;;;;;;4981395;28;20113;-56
2022/12/04 04:37:10;;;;;;;3.30;3.00;;;17.20;46.70;;;;;;4984937;28;20070;-55
2022/12/04 04:39:43;;;;;;;3.42;2.45;;;17.20;46.70;;;;;;4985032;28;20046;-57
2022/12/04 04:42:17;;;;;;;3.20;2.30;;;17.20;46.70;;;;;;4988875;28;20137;-56
2022/12/04 04:44:47;;;;;;;3.50;2.78;;;17.20;46.60;;;;;;4988516;28;20043;-55
2022/12/04 04:47:20;;;;;;;4.65;2.38;;;17.20;46.60;;;;;;4988644;28;20077;-58
2022/12/04 04:49:50;;;;;;;3.50;2.63;;;17.20;46.60;;;;;;4988339;28;20058;-56
2022/12/04 04:52:20;;;;;;;4.78;2.80;;;17.30;46.60;;;;;;4988378;28;20070;-57
2022/12/04 04:54:47;;;;;;;3.15;2.10;;;17.20;46.50;;;;;;4988395;28;20134;-57
2022/12/04 04:57:25;;;;;;;4.95;2.80;;;17.30;46.50;;;;;;4988545;28;20046;-57
2022/12/04 04:59:52;;;;;;;5.35;3.35;;;17.20;46.40;;;;;;5046466;28;20425;-57
2022/12/04 05:02:21;;;;;;;2.72;2.53;;;17.30;46.40;;;;;;5050256;28;20047;-58
2022/12/04 05:04:48;;;;;;;3.10;2.13;;;17.30;46.40;;;;;;5050097;28;20048;-56
2022/12/04 05:07:15;;;;;;;3.67;2.47;;;17.20;46.30;;;;;;5048825;28;20417;-55
2022/12/04 05:09:42;;;;;;;4.22;3.00;;;17.30;46.40;;;;;;5050435;28;20483;-55
2022/12/04 05:12:09;;;;;;;2.97;2.42;;;17.30;46.30;;;;;;5049938;28;20405;-57
2022/12/04 05:14:36;;;;;;;3.28;1.73;;;17.30;46.30;;;;;;5050052;28;20040;-57
2022/12/04 05:17:04;;;;;;;3.20;2.90;;;17.30;46.20;;;;;;5050023;28;20163;-57
2022/12/04 05:22:18;;;;;;;2.80;2.33;;;17.30;46.20;;;;;;5049960;28;20060;-56
2022/12/04 05:24:45;;;;;;;3.45;2.60;;;17.30;46.20;;;;;;5049869;28;20067;-56
2022/12/04 05:27:12;;;;;;;2.97;2.67;;;17.30;46.20;;;;;;5049888;28;20060;-55
2022/12/04 05:29:39;;;;;;;3.72;2.67;;;17.30;46.20;;;;;;5049946;28;20041;-56
2022/12/04 05:32:07;;;;;;;4.85;2.70;;;17.30;46.10;;;;;;5049741;28;20144;-56
2022/12/04 05:34:35;;;;;;;3.95;2.90;;;17.30;46.10;;;;;;5049519;28;20037;-56
2022/12/04 05:37:02;;;;;;;2.45;1.80;;;17.40;46.10;;;;;;5049847;28;20079;-56
2022/12/04 05:39:29;;;;;;;4.50;2.80;;;17.30;46.00;;;;;;5049547;28;20047;-56
2022/12/04 05:41:57;;;;;;;5.15;3.22;;;17.40;46.00;;;;;;5049851;28;20450;-56
2022/12/04 05:44:24;;;;;;;3.47;2.22;;;17.40;46.00;;;;;;5049672;28;20052;-56
2022/12/04 05:46:51;;;;;;;4.38;2.75;;;17.40;46.00;;;;;;5049497;28;20080;-55
2022/12/04 05:49:18;;;;;;;4.72;3.55;;;17.40;45.90;;;;;;5049231;28;20738;-54
2022/12/04 05:51:46;;;;;;;3.85;2.63;;;17.40;45.90;;;;;;5048243;28;20041;-57
2022/12/04 05:54:13;;;;;;;3.90;3.30;;;17.40;45.90;;;;;;5049460;28;20048;-56
2022/12/04 05:56:40;;;;;;;3.95;2.40;;;17.40;45.80;;;;;;5049535;28;20098;-55
2022/12/04 05:59:07;;;;;;;2.22;2.03;;;17.40;45.80;;;;;;5029421;28;20042;-56
2022/12/04 06:01:34;;;;;;;3.97;2.38;;;17.40;45.70;;;;;;5046995;28;20475;-56
2022/12/04 06:04:01;;;;;;;3.10;2.67;;;17.40;45.70;;;;;;5049171;28;20045;-56
2022/12/04 06:06:28;;;;;;;3.53;3.15;;;17.40;45.70;;;;;;5049349;28;20563;-56
2022/12/04 06:08:58;;;;;;;5.18;2.38;;;17.40;45.60;;;;;;5049319;28;20045;-56
2022/12/04 06:11:27;;;;;;;4.35;2.85;;;17.40;45.60;;;;;;5048875;28;20158;-56
2022/12/04 06:13:55;;;;;;;2.72;2.45;;;17.40;45.60;;;;;;5048977;28;20037;-56
2022/12/04 06:16:24;;;;;;;5.65;2.90;;;17.40;45.60;;;;;;5048730;28;20045;-56
2022/12/04 06:18:52;;;;;;;3.08;2.25;;;17.40;45.50;;;;;;5048574;28;20440;-56
2022/12/04 06:21:20;;;;;;;3.22;2.92;;;17.40;45.50;;;;;;5048866;28;20124;-57
2022/12/04 06:23:47;;;;;;;4.25;3.10;;;17.40;45.50;;;;;;5048811;28;20053;-57
2022/12/04 06:26:15;;;;;;;4.43;2.40;;;17.50;45.50;;;;;;5048613;28;20149;-56
2022/12/04 06:28:43;;;;;;;4.10;3.05;;;17.40;45.40;;;;;;5048819;28;20071;-55
2022/12/04 06:31:12;;;;;;;4.18;2.35;;;17.40;45.40;;;;;;5048334;28;20047;-56
2022/12/04 06:33:40;;;;;;;3.17;2.75;;;17.50;45.40;;;;;;5045146;28;20513;-57
2022/12/04 06:36:10;;;;;;;3.53;2.92;;;17.50;45.40;;;;;;5048436;28;20053;-56
2022/12/04 06:38:38;;;;;;;3.58;2.30;;;17.50;45.40;;;;;;5048371;28;20489;-56
2022/12/04 06:41:06;;;;;;;2.53;2.25;;;17.50;45.30;;;;;;5048297;28;20040;-56
2022/12/04 06:43:35;;;;;;;5.85;3.47;;;17.50;45.30;;;;;;5048491;28;20760;-55
2022/12/04 06:46:03;;;;;;;3.78;2.78;;;17.50;45.90;;;;;;5047941;28;20482;-56
2022/12/04 06:48:30;;;;;;;3.38;2.65;;;17.50;45.20;;;;;;5047876;28;20061;-56
2022/12/04 06:51:02;;;;;;;4.05;2.33;;;17.50;45.30;;;;;;5048285;28;20521;-57
2022/12/04 06:53:29;;;;;;;6.93;3.28;;;17.50;45.20;;;;;;5048204;28;20048;-56
2022/12/04 06:55:58;;;;;;;3.92;3.47;;;17.50;45.20;;;;;;5048016;28;20041;-57
2022/12/04 06:58:25;;;;;;;4.15;3.33;;;17.50;45.20;;;;;;5048032;28;20135;-56
2022/12/04 07:00:54;;;;;;;4.63;3.08;;;17.50;45.20;;;;;;5047806;28;20041;-55
2022/12/04 07:03:21;;;;;;;5.22;3.33;;;17.50;45.20;;;;;;5047586;28;20123;-57
2022/12/04 07:05:49;;;;;;;4.55;2.88;;;17.50;45.20;;;;;;5047946;28;20420;-55
2022/12/04 07:08:17;;;;;;;3.58;2.72;;;17.50;45.10;;;;;;5047744;28;20053;-56
2022/12/04 07:10:44;;;;;;;3.65;3.17;;;17.50;45.10;;;;;;5047894;28;20374;-57
2022/12/04 07:13:11;;;;;;;3.78;2.88;;;17.50;45.00;;;;;;5047978;28;20126;-57
2022/12/04 07:15:38;;;;;;;5.20;3.33;;;17.50;45.00;;;;;;5047370;28;20041;-56
2022/12/04 07:18:07;;;;;;;3.60;2.65;;;17.50;45.00;;;;;;5047790;28;20048;-57
2022/12/04 07:20:34;;;;;;;4.82;3.33;;;17.50;45.60;;;;;;5047661;28;20040;-56
2022/12/04 07:23:01;;;;;;;5.88;3.35;;;17.50;45.00;;;;;;5047818;28;20041;-56
2022/12/04 07:25:30;;;;;;;3.17;2.88;;;17.50;44.90;;;;;;5047679;28;20041;-56
2022/12/04 07:27:57;;;;;;;4.28;3.00;;;17.60;44.90;;;;;;5047474;28;20048;-57
2022/12/04 07:30:24;;;;;;;3.78;3.22;;;17.50;44.90;;;;;;5047405;28;20527;-56
2022/12/04 07:32:51;;;;;;;3.65;2.88;;;17.50;44.80;;;;;;5047431;28;20068;-55
2022/12/04 07:35:19;;;;;;;4.65;3.55;;;17.60;44.90;;;;;;5047424;28;20045;-54
2022/12/04 07:37:46;;;;;;;2.80;2.45;;;17.60;44.80;;;;;;5047393;28;20065;-56
2022/12/04 07:40:14;;;;;;;5.18;3.30;;;17.60;44.80;;;;;;5047204;28;20045;-56
2022/12/04 07:42:41;;;;;;;4.35;2.95;;;17.60;44.80;;;;;;5047388;28;20075;-56
2022/12/04 07:45:09;;;;;;;5.03;3.10;;;17.60;44.70;;;;;;5046649;28;20501;-58
2022/12/04 07:47:36;;;;;;;5.32;4.10;;;17.60;44.70;;;;;;5047187;28;20672;-55
2022/12/04 07:50:04;;;;;;;4.55;3.45;;;17.60;44.70;;;;;;5047325;28;20373;-57
2022/12/04 07:52:35;;;;;;;3.47;2.72;;;17.60;44.70;;;;;;5047272;28;20045;-55
2022/12/04 07:55:02;;;;;;;3.88;2.30;;;17.60;44.70;;;;;;5047136;28;20069;-57
2022/12/04 07:57:29;;;;;;;3.17;2.88;;;17.60;44.60;;;;;;5046881;28;20532;-57
2022/12/04 07:59:56;;;;;;;4.28;3.45;;;17.60;44.60;;;;;;5047027;28;20045;-55
2022/12/04 08:02:23;;;;;;;4.72;3.97;;;17.60;44.60;;;;;;5045596;28;20124;-56
2022/12/04 08:04:50;;;;;;;4.38;2.80;;;17.60;44.50;;;;;;5047059;28;20052;-57
2022/12/04 08:07:18;;;;;;;6.10;3.45;;;17.60;44.50;;;;;;5046969;28;20051;-57
2022/12/04 08:09:46;;;;;;;4.93;3.25;;;17.60;44.50;;;;;;5046842;28;20049;-56
2022/12/04 08:12:13;;;;;;;4.35;3.60;;;17.60;44.50;;;;;;5047095;28;20850;-54
2022/12/04 08:14:40;;;;;;;5.72;3.88;;;17.60;44.50;;;;;;5045957;28;20057;-57
2022/12/04 08:17:07;;;;;;;4.00;3.45;;;17.60;44.50;;;;;;5051295;28;20488;-56
2022/12/04 08:19:34;;;;;;;3.60;3.03;;;17.60;44.50;;;;;;5051390;28;20051;-56
2022/12/04 08:22:01;;;;;;;5.88;3.60;;;17.60;44.50;;;;;;5051228;28;20045;-55
2022/12/04 08:24:28;;;;;;;5.57;4.03;;;17.60;44.50;;;;;;5051340;28;20123;-57
2022/12/04 08:26:56;;;;;;;6.18;4.35;;;17.60;44.50;;;;;;5050178;28;20444;-56
2022/12/04 08:29:23;;;;;;;6.13;4.10;;;17.60;44.40;;;;;;5047421;28;20130;-56
2022/12/04 08:31:51;;;;;;;7.30;4.82;;;17.70;44.40;;;;;;5050723;28;20060;-56
2022/12/04 08:34:18;;;;;;;7.00;5.50;;;17.60;44.40;;;;;;5050902;28;20132;-56
2022/12/04 08:36:45;;;;;;;8.90;6.25;;;17.70;44.40;;;;;;5050459;28;20049;-56
2022/12/04 08:39:12;;;;;;;9.20;5.97;;;17.70;44.40;;;;;;5050780;28;20486;-56
2022/12/04 08:41:39;;;;;;;9.07;6.65;;;17.70;44.40;;;;;;5050283;28;20512;-57
2022/12/04 08:44:08;;;;;;;11.68;7.18;;;17.70;44.40;;;;;;5050880;28;20045;-57
2022/12/04 08:46:36;;;;;;;12.25;7.70;;;17.70;44.40;;;;;;5050556;28;20040;-58
2022/12/04 08:49:03;;;;;;;17.15;10.68;;;17.70;44.30;;;;;;5050706;28;20053;-56
2022/12/04 08:51:33;;;;;;;21.60;11.02;;;17.60;44.30;;;;;;5050398;28;20517;-56
2022/12/04 08:54:02;;;;;;;23.88;12.15;;;17.70;44.30;;;;;;5050456;28;20044;-57
2022/12/04 08:56:31;;;;;;;29.80;14.38;;;17.70;44.20;;;;;;5050031;28;20051;-57
2022/12/04 08:58:59;;;;;;;29.45;16.05;;;17.70;44.20;;;;;;5050368;28;20134;-57
2022/12/04 09:01:28;;;;;;;33.50;16.38;;;17.70;44.10;;;;;;5050401;28;20037;-56
2022/12/04 09:03:56;;;;;;;30.75;16.13;;;17.70;44.10;;;;;;5050260;28;20140;-56
2022/12/04 09:06:23;;;;;;;38.38;19.27;;;17.70;44.00;;;;;;5050424;28;20041;-57
2022/12/04 09:08:53;;;;;;;41.65;20.55;;;17.70;44.00;;;;;;5050273;28;20619;-56
2022/12/04 09:11:21;;;;;;;41.40;21.17;;;17.70;44.00;;;;;;5049616;28;20037;-56
2022/12/04 09:13:48;;;;;;;47.55;23.25;;;17.70;44.00;;;;;;5050340;28;20041;-56
2022/12/04 09:16:17;;;;;;;51.58;24.73;;;17.70;44.00;;;;;;5049937;28;20045;-55
2022/12/04 09:18:46;;;;;;;63.35;33.38;;;17.70;44.00;;;;;;5050000;28;20045;-57
2022/12/04 09:21:15;;;;;;;71.70;36.33;;;17.80;44.00;;;;;;5049822;28;20167;-56
2022/12/04 09:23:42;;;;;;;76.25;40.08;;;17.70;43.80;;;;;;5048556;28;20162;-55
2022/12/04 09:26:18;;;;;;;78.95;38.65;;;17.70;43.80;;;;;;5049878;28;20045;-53
2022/12/04 09:28:45;;;;;;;86.15;42.75;;;17.80;43.80;;;;;;5049791;28;20041;-56
2022/12/04 09:31:12;;;;;;;89.55;42.40;;;17.70;43.70;;;;;;5049980;28;20043;-57
2022/12/04 09:33:39;;;;;;;85.82;43.60;;;17.70;43.60;;;;;;5049888;28;20136;-57
2022/12/04 09:36:14;;;;;;;80.60;41.28;;;17.80;43.70;;;;;;5049703;28;20070;-57
2022/12/04 09:38:43;;;;;;;83.10;41.47;;;17.80;44.20;;;;;;5049665;28;20464;-57
2022/12/04 09:41:28;;;;;;;82.10;41.65;;;17.80;43.60;;;;;;5049516;28;20049;-58
2022/12/04 09:43:59;;;;;;;85.35;42.08;;;17.80;43.60;;;;;;5049278;28;20135;-56
2022/12/04 09:46:31;;;;;;;76.28;40.95;;;17.80;43.60;;;;;;5049671;28;20037;-57
2022/12/04 09:49:07;;;;;;;76.07;38.58;;;17.80;43.60;;;;;;5049678;28;20040;-54
2022/12/04 09:51:37;;;;;;;74.00;36.70;;;17.80;43.60;;;;;;5049446;28;20045;-56
2022/12/04 09:54:12;;;;;;;73.75;34.72;;;17.70;43.50;;;;;;5049074;28;20069;-56
2022/12/04 09:56:39;;;;;;;59.80;33.30;;;17.80;43.50;;;;;;5049446;28;20040;-56
2022/12/04 09:59:14;;;;;;;68.68;33.15;;;17.80;43.50;;;;;;5049425;28;20051;-55
2022/12/04 10:01:45;;;;;;;60.22;31.67;;;17.80;43.50;;;;;;5049307;28;20044;-57
2022/12/04 10:04:12;;;;;;;62.33;32.17;;;17.80;43.50;;;;;;5039021;28;20069;-57
2022/12/04 10:06:48;;;;;;;55.70;28.80;;;17.80;43.40;;;;;;5049243;28;20044;-54
2022/12/04 10:09:22;;;;;;;57.13;27.95;;;17.80;43.40;;;;;;5048716;28;20459;-55
2022/12/04 10:11:56;;;;;;;55.45;28.73;;;17.80;43.40;;;;;;5049034;28;20044;-57
2022/12/04 10:14:43;;;;;;;50.38;26.80;;;17.80;43.40;;;;;;5049437;28;20045;-58
2022/12/04 10:17:35;;;;;;;52.22;24.67;;;17.80;43.40;;;;;;5048320;28;20152;-57
2022/12/04 10:20:17;;;;;;;43.08;24.23;;;17.80;43.30;;;;;;5048905;28;20076;-56
2022/12/04 10:22:55;;;;;;;41.60;23.65;;;17.80;43.30;;;;;;5048578;28;20145;-57
2022/12/04 10:25:24;;;;;;;36.75;21.10;;;17.80;43.20;;;;;;5048819;28;20549;-57
2022/12/04 10:27:56;;;;;;;36.90;20.90;;;17.80;43.20;;;;;;5048860;28;20560;-56
2022/12/04 10:30:25;;;;;;;36.03;19.75;;;17.80;43.20;;;;;;5045594;28;20072;-57
2022/12/04 10:32:58;;;;;;;36.53;19.27;;;17.80;43.30;;;;;;5048581;28;20525;-57
2022/12/04 10:35:28;;;;;;;32.20;17.35;;;17.80;43.20;;;;;;5048977;28;20045;-57
2022/12/04 10:38:02;;;;;;;36.83;20.27;;;17.80;43.20;;;;;;5063029;28;20513;-56
2022/12/04 10:40:33;;;;;;;36.42;18.77;;;17.80;43.10;;;;;;5048696;28;20509;-56
2022/12/04 10:43:11;;;;;;;31.48;17.08;;;17.80;43.00;;;;;;5048742;28;20076;-57
2022/12/04 10:45:38;;;;;;;31.67;17.15;;;17.80;43.00;;;;;;5048749;28;20045;-57
2022/12/04 10:48:07;;;;;;;27.67;15.73;;;17.80;43.00;;;;;;5048638;28;20081;-55
2022/12/04 10:50:34;;;;;;;31.73;16.77;;;17.80;42.90;;;;;;5048404;28;20051;-56
2022/12/04 10:53:03;;;;;;;24.30;14.73;;;17.80;42.90;;;;;;5047492;28;20509;-55
2022/12/04 10:55:32;;;;;;;26.85;14.35;;;17.90;42.90;;;;;;5048404;28;20037;-54
2022/12/04 10:57:59;;;;;;;24.88;14.82;;;17.90;42.90;;;;;;5048427;28;20036;-57
2022/12/04 11:00:29;;;;;;;26.27;13.85;;;17.90;42.90;;;;;;5048620;28;20857;-54
2022/12/04 11:02:59;;;;;;;23.40;13.52;;;17.90;42.90;;;;;;5048227;28;20073;-56
2022/12/04 11:05:31;;;;;;;25.45;12.88;;;17.80;42.80;;;;;;5048576;28;20083;-55
2022/12/04 11:07:59;;;;;;;23.52;14.18;;;17.90;42.90;;;;;;5047886;28;20149;-57
2022/12/04 11:10:33;;;;;;;20.75;11.70;;;17.90;42.80;;;;;;5048119;28;20059;-56
2022/12/04 11:13:03;;;;;;;17.05;10.52;;;17.90;42.90;;;;;;5048262;28;20557;-57
2022/12/04 11:15:30;;;;;;;15.57;10.45;;;17.80;42.80;;;;;;5048214;28;20049;-57
2022/12/04 11:18:08;;;;;;;20.13;11.73;;;17.90;42.90;;;;;;5047637;28;20139;-55
2022/12/04 11:20:35;;;;;;;23.83;11.15;;;17.90;42.90;;;;;;5047649;28;20080;-56
2022/12/04 11:23:03;;;;;;;15.93;8.95;;;17.90;42.90;;;;;;5047846;28;20048;-56
2022/12/04 11:25:37;;;;;;;19.75;11.65;;;17.90;42.90;;;;;;5047676;28;20040;-53
2022/12/04 11:28:05;;;;;;;21.77;12.48;;;17.90;42.80;;;;;;5047662;28;20049;-57
2022/12/04 11:30:35;;;;;;;19.15;12.32;;;17.90;42.80;;;;;;5047762;28;20036;-57
2022/12/04 11:33:05;;;;;;;25.48;14.75;;;17.90;42.80;;;;;;5047596;28;20460;-56
2022/12/04 11:35:33;;;;;;;27.73;15.18;;;18.00;42.90;;;;;;5047564;28;20041;-53
2022/12/04 11:38:06;;;;;;;26.77;15.85;;;18.00;42.80;;;;;;5047464;28;20037;-56
2022/12/04 11:40:36;;;;;;;26.13;15.88;;;18.00;42.80;;;;;;5047004;28;20115;-56
2022/12/04 11:43:05;;;;;;;29.05;15.70;;;18.00;42.70;;;;;;5047524;28;20041;-56
2022/12/04 11:45:33;;;;;;;27.55;15.25;;;18.00;42.70;;;;;;5047761;28;20572;-55
2022/12/04 11:48:02;;;;;;;30.00;14.77;;;18.00;42.70;;;;;;5046850;28;20086;-56
2022/12/04 11:50:39;;;;;;;33.15;16.73;;;18.00;42.70;;;;;;5046398;28;20464;-54
2022/12/04 11:53:13;;;;;;;24.05;13.52;;;18.00;42.70;;;;;;5047304;28;20052;-57
2022/12/04 11:55:56;;;;;;;22.75;13.63;;;18.00;42.70;;;;;;5045939;28;20045;-56
2022/12/04 11:58:44;;;;;;;26.70;13.48;;;18.00;42.60;;;;;;5047325;28;20182;-57
2022/12/04 12:01:23;;;;;;;27.63;15.63;;;18.00;42.60;;;;;;5047243;28;20090;-57
2022/12/04 12:04:07;;;;;;;25.45;14.38;;;18.00;42.60;;;;;;5047157;28;20049;-56
2022/12/04 12:06:37;;;;;;;22.15;12.50;;;18.00;42.50;;;;;;5047166;28;20132;-55
2022/12/04 12:09:17;;;;;;;21.38;14.20;;;18.00;42.60;;;;;;5047049;28;20133;-55
2022/12/04 12:11:54;;;;;;;23.10;12.95;;;18.10;42.50;;;;;;5047011;28;20124;-56
2022/12/04 12:14:32;;;;;;;22.90;12.13;;;18.00;42.50;;;;;;5047272;28;20509;-55
2022/12/04 12:17:09;;;;;;;21.92;12.85;;;18.00;42.50;;;;;;5047093;28;20087;-55
2022/12/04 12:19:52;;;;;;;21.58;11.02;;;18.00;42.50;;;;;;5046640;28;20128;-55
2022/12/04 12:22:36;;;;;;;20.88;11.40;;;18.10;42.50;;;;;;5047155;28;20095;-56
2022/12/04 12:25:11;;;;;;;17.13;9.77;;;18.00;42.40;;;;;;5047187;28;20686;-56
2022/12/04 12:27:53;;;;;;;14.63;8.85;;;18.00;42.40;;;;;;5045732;28;20800;-55
2022/12/04 12:30:22;;;;;;;19.35;10.15;;;18.00;42.40;;;;;;5046793;28;20139;-55
2022/12/04 12:33:03;;;;;;;16.27;10.43;;;18.00;42.40;;;;;;5046926;28;20090;-55
2022/12/04 12:35:33;;;;;;;18.10;10.23;;;18.00;42.40;;;;;;5047042;28;20072;-55
2022/12/04 12:38:04;;;;;;;18.02;9.75;;;18.00;42.50;;;;;;5046836;28;20049;-55
2022/12/04 12:40:36;;;;;;;15.25;9.45;;;18.00;42.50;;;;;;5043109;28;20206;-56
2022/12/04 12:43:11;;;;;;;14.32;8.52;;;18.00;42.50;;;;;;5047039;28;20048;-54
2022/12/04 12:45:44;;;;;;;16.80;9.15;;;18.00;42.60;;;;;;5046979;28;20158;-55
2022/12/04 12:48:27;;;;;;;12.65;7.82;;;18.00;42.60;;;;;;5046729;28;20136;-56
2022/12/04 12:51:01;;;;;;;15.55;8.63;;;18.00;42.60;;;;;;5047037;28;20121;-54
2022/12/04 12:53:37;;;;;;;13.25;6.93;;;18.00;42.60;;;;;;5046752;28;20068;-55
2022/12/04 12:56:06;;;;;;;11.00;7.72;;;18.00;42.60;;;;;;5046737;28;20651;-56
2022/12/04 12:58:41;;;;;;;18.77;9.73;;;18.00;42.60;;;;;;5046714;28;20801;-55
2022/12/04 13:01:13;;;;;;;13.38;9.32;;;18.10;42.60;;;;;;5047662;28;20049;-55
2022/12/04 13:03:46;;;;;;;17.10;10.23;;;18.10;42.50;;;;;;5050411;28;20045;-56
2022/12/04 13:06:17;;;;;;;18.65;10.10;;;18.00;42.50;;;;;;5050726;28;20480;-55
2022/12/04 13:08:55;;;;;;;18.13;11.30;;;18.00;42.50;;;;;;5050319;28;20045;-55
2022/12/04 13:11:25;;;;;;;17.27;9.57;;;18.00;42.40;;;;;;5050114;28;20103;-54